»·PEaware :: ASA62 PANC-PAJN

ASA62 :: PANC-PAJN

FLIGHT INFORMATION

Flight Status: Arrived
Operator:
Alaska Airlines
More flights by this operator :: More flights under this callsign
Pilot: Anonymous 14085 (14085)
Aircraft: BOEING 737-800
(B738)
More flights by this aircraft type
Origin: PANC Stevens Anchorage Intl
United States
Destination: PAJN Juneau Intl
United States
More flights between these airports :: More routes between these airports
Route: ASORT
File this flight plan on PilotEdge
Remarks:
Altitude:
(Current/Filed)
35,000ft
Speed:
(Current/Filed)
480kts
Departed: 12-May-17 08:56 PM
Arrived: 12-May-17 10:28 PM
Distance/Time
Traveled:
494nm/1:32
Distance/Time
To Go:
Arrived

Flight Plot

Page will automatically refresh every two minutes.

Flight plan parsing failed; only flown route is shown


Map Options




Map Legend


Flown Route
Filed Route
Departure Airport
Arrival Airport
Navaid (VOR, NDB)
Fix

Horizontal Profiles

Position Reports

Time Latitude Longitude Heading Altitude Ground
Speed
12-May-17 19:35 61.174300 -149.984120 82 159ft 0kts
12-May-17 19:36 61.174300 -149.984120 82 159ft 0kts
12-May-17 19:37 61.174300 -149.984120 82 159ft 0kts
12-May-17 19:38 61.174300 -149.984120 82 159ft 0kts
12-May-17 19:39 61.174300 -149.984120 82 159ft 0kts
12-May-17 19:40 61.174300 -149.984120 82 159ft 0kts
12-May-17 19:41 61.174300 -149.984120 82 159ft 0kts
12-May-17 19:42 61.174300 -149.984120 82 159ft 0kts
12-May-17 19:43 61.174300 -149.984120 82 159ft 0kts
12-May-17 19:44 61.174300 -149.984120 82 159ft 0kts
12-May-17 19:45 61.174300 -149.984120 82 159ft 0kts
12-May-17 19:46 61.174300 -149.984120 82 159ft 0kts
12-May-17 19:47 61.174300 -149.984120 82 159ft 0kts
12-May-17 19:48 61.174300 -149.984120 82 159ft 0kts
12-May-17 19:49 61.174300 -149.984120 82 159ft 0kts
12-May-17 19:50 61.174300 -149.984120 82 159ft 0kts
12-May-17 19:51 61.174300 -149.984120 82 159ft 0kts
12-May-17 19:52 61.174300 -149.984120 82 159ft 0kts
12-May-17 19:53 61.174300 -149.984120 82 159ft 0kts
12-May-17 19:54 61.174300 -149.984120 82 159ft 0kts
12-May-17 19:55 61.174300 -149.984120 82 159ft 0kts
12-May-17 19:56 61.174300 -149.984120 82 159ft 0kts
12-May-17 19:57 61.174300 -149.984120 82 159ft 0kts
12-May-17 19:58 61.174300 -149.984120 82 159ft 0kts
12-May-17 19:59 61.174300 -149.984120 82 159ft 0kts
12-May-17 20:00 61.174300 -149.984120 82 159ft 0kts
12-May-17 20:01 61.174300 -149.984120 82 159ft 0kts
12-May-17 20:02 61.174300 -149.984120 82 159ft 0kts
12-May-17 20:03 61.174300 -149.984120 82 159ft 0kts
12-May-17 20:04 61.174300 -149.984120 82 159ft 0kts
12-May-17 20:05 61.174300 -149.984120 82 159ft 0kts
12-May-17 20:06 61.174300 -149.984120 82 159ft 0kts
12-May-17 20:07 61.174300 -149.984120 82 159ft 0kts
12-May-17 20:08 61.174300 -149.984120 82 159ft 0kts
12-May-17 20:09 61.174300 -149.984120 82 159ft 0kts
12-May-17 20:10 61.174300 -149.984120 82 159ft 0kts
12-May-17 20:11 61.174300 -149.984120 82 159ft 0kts
12-May-17 20:12 61.174300 -149.984120 82 159ft 0kts
12-May-17 20:13 61.174300 -149.984120 82 159ft 0kts
12-May-17 20:14 61.174300 -149.984120 82 159ft 0kts
12-May-17 20:15 61.174300 -149.984120 82 159ft 0kts
12-May-17 20:16 61.174300 -149.984120 82 159ft 0kts
12-May-17 20:17 61.174300 -149.984120 82 159ft 0kts
12-May-17 20:18 61.174300 -149.984120 82 159ft 0kts
12-May-17 20:19 61.174300 -149.984120 82 159ft 0kts
12-May-17 20:20 61.174300 -149.984120 82 159ft 0kts
12-May-17 20:21 61.174300 -149.984120 82 159ft 0kts
12-May-17 20:22 61.174300 -149.984120 82 159ft 0kts
12-May-17 20:23 61.174300 -149.984120 82 159ft 0kts
12-May-17 20:24 61.174300 -149.984120 82 159ft 0kts
12-May-17 20:25 61.174300 -149.984120 82 159ft 0kts
12-May-17 20:26 61.174300 -149.984120 82 159ft 0kts
12-May-17 20:27 61.174300 -149.984120 82 159ft 0kts
12-May-17 20:28 61.174300 -149.984120 82 159ft 0kts
12-May-17 20:29 61.174300 -149.984120 82 159ft 0kts
12-May-17 20:30 61.174300 -149.984120 82 159ft 0kts
12-May-17 20:31 61.174300 -149.984120 82 159ft 0kts
12-May-17 20:32 61.174300 -149.984120 82 159ft 0kts
12-May-17 20:33 61.174300 -149.984120 82 159ft 0kts
12-May-17 20:34 61.174300 -149.984120 82 159ft 0kts
12-May-17 20:35 61.174300 -149.984120 82 159ft 0kts
12-May-17 20:36 61.174300 -149.984120 82 159ft 0kts
12-May-17 20:37 61.174300 -149.984120 82 159ft 0kts
12-May-17 20:38 61.174300 -149.984120 82 159ft 0kts
12-May-17 20:39 61.174300 -149.984120 82 159ft 0kts
12-May-17 20:40 61.174300 -149.984120 82 159ft 0kts
12-May-17 20:41 61.174300 -149.984120 82 159ft 0kts
12-May-17 20:42 61.174300 -149.984120 82 159ft 0kts
12-May-17 20:43 61.174300 -149.984120 82 159ft 0kts
12-May-17 20:44 61.174300 -149.984120 82 159ft 0kts
12-May-17 20:45 61.174300 -149.984120 82 159ft 0kts
12-May-17 20:46 61.174300 -149.984120 82 159ft 0kts
12-May-17 20:47 61.174300 -149.984121 83 159ft 0kts
12-May-17 20:48 61.174334 -149.985008 205 159ft 1kts
12-May-17 20:49 61.173700 -149.986066 220 159ft 13kts
12-May-17 20:50 61.171353 -149.986437 114 159ft 13kts
12-May-17 20:51 61.171177 -149.981556 90 158ft 12kts
12-May-17 20:52 61.171270 -149.972462 88 159ft 15kts
12-May-17 20:53 61.171278 -149.963967 90 158ft 9kts
12-May-17 20:54 61.171280 -149.955527 89 159ft 13kts
12-May-17 20:55 61.171290 -149.951099 89 158ft 13kts
12-May-17 20:56 61.169815 -149.949382 262 159ft 0kts
12-May-17 20:57 61.169815 -149.949405 266 159ft 0kts
12-May-17 20:58 61.172830 -150.014829 294 2016ft 175kts
12-May-17 20:59 61.226227 -150.050760 10 5201ft 241kts
12-May-17 21:00 61.295563 -149.995265 23 8612ft 292kts
12-May-17 21:01 61.366594 -149.906509 42 12723ft 304kts
12-May-17 21:02 61.452657 -149.887992 331 15775ft 345kts
12-May-17 21:03 61.491691 -150.056892 251 19258ft 357kts
12-May-17 21:04 61.407333 -150.119546 152 22355ft 386kts
12-May-17 21:05 61.318458 -149.984715 145 25026ft 407kts
12-May-17 21:06 61.227864 -149.842808 145 28077ft 408kts
12-May-17 21:07 61.139984 -149.695566 139 30787ft 408kts
12-May-17 21:08 61.056579 -149.528626 133 32023ft 439kts
12-May-17 21:09 60.977362 -149.329364 122 33073ft 474kts
12-May-17 21:10 60.923699 -149.079234 112 34084ft 478kts
12-May-17 21:11 60.879236 -148.827579 111 34896ft 476kts
12-May-17 21:12 60.834686 -148.568785 110 34913ft 486kts
12-May-17 21:13 60.790762 -148.313247 112 34913ft 484kts
12-May-17 21:14 60.745483 -148.054501 111 34913ft 484kts
12-May-17 21:15 60.700100 -147.796111 111 34914ft 483kts
12-May-17 21:16 60.654413 -147.539310 111 34915ft 483kts
12-May-17 21:17 60.608404 -147.285256 113 34912ft 481kts
12-May-17 21:18 60.561289 -147.029984 112 34913ft 481kts
12-May-17 21:19 60.514343 -146.776669 112 34915ft 480kts
12-May-17 21:20 60.471356 -146.522176 104 34941ft 483kts
12-May-17 21:21 60.441819 -146.258649 105 34939ft 481kts
12-May-17 21:22 60.410829 -145.995720 105 34939ft 481kts
12-May-17 21:23 60.379618 -145.733332 105 34940ft 481kts
12-May-17 21:24 60.348023 -145.472404 105 34940ft 480kts
12-May-17 21:25 60.323452 -145.274811 107 34939ft 479kts
12-May-17 21:29 61.169823 -149.953545 269 159ft 82kts
12-May-17 21:30 61.141894 -149.998308 185 3137ft 166kts
12-May-17 21:31 61.086462 -150.003305 166 4355ft 261kts
12-May-17 21:32 61.031144 -149.775492 105 8041ft 275kts
12-May-17 21:33 60.988969 -149.445577 105 14672ft 368kts
12-May-17 21:34 60.945992 -149.116091 106 20895ft 400kts
12-May-17 21:35 60.892036 -148.712837 106 27016ft 416kts
12-May-17 21:36 60.828674 -148.251008 107 29991ft 487kts
12-May-17 21:37 60.755456 -147.733537 108 32875ft 497kts
12-May-17 21:38 60.681265 -147.225613 109 32913ft 491kts
12-May-17 21:39 60.604486 -146.715714 109 32914ft 490kts
12-May-17 21:40 60.527510 -146.219266 110 32939ft 488kts
12-May-17 21:41 60.447834 -145.719907 110 32940ft 487kts
12-May-17 21:42 60.368135 -145.234033 111 32939ft 485kts
12-May-17 21:43 60.285019 -144.740908 111 32939ft 483kts
12-May-17 21:44 60.200499 -144.252649 112 32938ft 481kts
12-May-17 21:45 60.113541 -143.763352 112 32938ft 480kts
12-May-17 21:46 60.025822 -143.282227 113 32936ft 478kts
12-May-17 21:47 59.935976 -142.801692 113 32936ft 477kts
12-May-17 21:48 59.846670 -142.335512 114 32943ft 475kts
12-May-17 21:49 59.757282 -141.879716 114 32942ft 473kts
12-May-17 21:50 59.666541 -141.427473 114 32942ft 472kts
12-May-17 21:51 59.575506 -140.983723 115 32941ft 470kts
12-May-17 21:52 59.483530 -140.545000 115 32940ft 469kts
12-May-17 21:53 59.391918 -140.117124 116 32939ft 467kts
12-May-17 21:54 59.311446 -139.748418 115 32939ft 466kts
12-May-17 21:55 59.260133 -139.516657 115 32938ft 465kts
12-May-17 21:56 59.208693 -139.286857 116 32938ft 464kts
12-May-17 21:57 59.155573 -139.059349 117 32938ft 463kts
12-May-17 21:58 59.101612 -138.831705 117 32937ft 462kts
12-May-17 21:59 59.047901 -138.608203 115 32936ft 451kts
12-May-17 22:00 58.994507 -138.388339 114 32936ft 450kts
12-May-17 22:01 58.942238 -138.174382 115 32939ft 450kts
12-May-17 22:02 58.888661 -137.957762 114 31853ft 437kts
12-May-17 22:03 58.835216 -137.744289 112 29973ft 454kts
12-May-17 22:04 58.780719 -137.527786 112 28040ft 441kts
12-May-17 22:05 58.727865 -137.319422 113 26139ft 434kts
12-May-17 22:06 58.679644 -137.130960 113 24392ft 426kts
12-May-17 22:07 58.628223 -136.931715 114 22204ft 405kts
12-May-17 22:08 58.580474 -136.748102 115 19564ft 369kts
12-May-17 22:09 58.536730 -136.582102 114 17695ft 331kts
12-May-17 22:10 58.496807 -136.431364 113 16064ft 316kts
12-May-17 22:11 58.458025 -136.285416 114 14513ft 315kts
12-May-17 22:12 58.418799 -136.138984 114 12913ft 307kts
12-May-17 22:13 58.380343 -135.996315 115 11183ft 300kts
12-May-17 22:14 58.342573 -135.856912 115 9293ft 296kts
12-May-17 22:15 58.304936 -135.719009 115 7403ft 292kts
12-May-17 22:16 58.267477 -135.582424 116 5525ft 294kts
12-May-17 22:17 58.230574 -135.448935 116 4348ft 274kts
12-May-17 22:18 58.196338 -135.325767 117 3450ft 255kts
12-May-17 22:19 58.191459 -135.214353 66 3400ft 191kts
12-May-17 22:20 58.211270 -135.121536 63 3389ft 191kts
12-May-17 22:21 58.239711 -135.053452 10 3404ft 158kts
12-May-17 22:22 58.282843 -135.035598 7 3387ft 158kts
12-May-17 22:23 58.326132 -135.019872 6 3387ft 158kts
12-May-17 22:24 58.357648 -134.970023 86 2709ft 167kts
12-May-17 22:25 58.357562 -134.888084 87 2684ft 151kts
12-May-17 22:26 58.357706 -134.804914 89 1982ft 157kts
12-May-17 22:27 58.357784 -134.725697 89 1036ft 144kts
12-May-17 22:28 58.359543 -134.650371 80 554ft 139kts
12-May-17 22:29 58.355562 -134.580584 103 29ft 45kts
12-May-17 22:30 58.355258 -134.572741 356 29ft 0kts
12-May-17 22:31 58.355831 -134.574438 284 29ft 5kts
12-May-17 22:32 58.356597 -134.579920 284 29ft 10kts
12-May-17 22:33 58.356997 -134.582809 284 29ft 2kts
12-May-17 22:34 58.357281 -134.584812 284 29ft 3kts
12-May-17 22:35 58.357890 -134.697800 89 781ft 143kts
12-May-17 22:36 58.360971 -134.623536 92 470ft 142kts
12-May-17 22:37 58.356129 -134.584638 104 29ft 110kts
12-May-17 22:38 58.357484 -134.586564 323 29ft 12kts
12-May-17 22:39 58.357921 -134.585826 87 29ft 2kts
12-May-17 22:40 58.357802 -134.584704 100 29ft 3kts
12-May-17 22:41 58.358164 -134.582985 2 29ft 0kts
12-May-17 22:42 58.358164 -134.582985 2 29ft 0kts
12-May-17 22:43 58.358164 -134.582985 2 29ft 0kts

Navigation Log

Ident Type
Flight plan parsing failed, navigation log unavailable